createdAt,value
2018-09-21T00:00:52.938Z,5.30
2018-09-21T00:03:21.198Z,5.33
2018-09-21T00:05:49.979Z,5.03
2018-09-21T00:08:18.206Z,5.37
2018-09-21T00:10:46.546Z,5.50
2018-09-21T00:13:14.802Z,5.63
2018-09-21T00:15:43.081Z,5.20
2018-09-21T00:18:11.369Z,5.20
2018-09-21T00:20:39.619Z,5.47
2018-09-21T00:23:07.843Z,5.30
2018-09-21T00:25:36.320Z,4.80
2018-09-21T00:28:04.651Z,5.20
2018-09-21T00:30:32.882Z,5.10
2018-09-21T00:33:01.122Z,5.30
2018-09-21T00:35:29.338Z,5.20
2018-09-21T00:37:57.674Z,4.70
2018-09-21T00:40:25.915Z,5.20
2018-09-21T00:42:54.197Z,5.43
2018-09-21T00:45:22.462Z,5.27
2018-09-21T00:47:50.728Z,5.03
2018-09-21T00:50:18.955Z,4.73
2018-09-21T00:52:47.203Z,4.73
2018-09-21T00:55:15.453Z,5.00
2018-09-21T00:57:43.743Z,5.30
2018-09-21T01:00:12.218Z,4.90
2018-09-21T01:02:40.746Z,5.03
2018-09-21T01:05:08.998Z,4.97
2018-09-21T01:07:37.212Z,5.63
2018-09-21T01:10:05.526Z,4.93
2018-09-21T01:12:33.746Z,5.17
2018-09-21T01:15:01.994Z,5.00
2018-09-21T01:17:30.402Z,4.60
2018-09-21T01:19:58.678Z,5.47
2018-09-21T01:22:26.903Z,5.50
2018-09-21T01:24:55.244Z,5.33
2018-09-21T01:27:23.461Z,5.20
2018-09-21T01:29:51.767Z,5.33
2018-09-21T01:32:20.015Z,5.10
2018-09-21T01:34:48.749Z,5.37
2018-09-21T01:37:16.990Z,4.73
2018-09-21T01:39:45.246Z,4.87
2018-09-21T01:42:13.547Z,4.80
2018-09-21T01:44:41.791Z,5.23
2018-09-21T01:47:10.322Z,5.00
2018-09-21T01:49:38.549Z,4.87
2018-09-21T01:52:06.856Z,4.97
2018-09-21T01:54:35.257Z,4.33
2018-09-21T01:57:03.550Z,4.93
2018-09-21T01:59:31.786Z,4.73
2018-09-21T02:02:00.295Z,5.03
2018-09-21T02:04:33.819Z,4.50
2018-09-21T02:07:02.106Z,4.83
2018-09-21T02:09:30.372Z,4.70
2018-09-21T02:11:58.599Z,4.53
2018-09-21T02:14:26.882Z,4.87
2018-09-21T02:16:55.270Z,4.67
2018-09-21T02:19:23.522Z,4.90
2018-09-21T02:21:52.078Z,4.53
2018-09-21T02:24:21.134Z,4.70
2018-09-21T02:26:49.713Z,4.73
2018-09-21T02:29:18.311Z,4.70
2018-09-21T02:31:47.102Z,5.00
2018-09-21T02:34:15.458Z,4.63
2018-09-21T02:36:43.940Z,4.20
2018-09-21T02:39:12.146Z,4.83
2018-09-21T02:41:40.462Z,4.90
2018-09-21T02:44:08.866Z,4.80
2018-09-21T02:46:43.694Z,4.70
2018-09-21T02:49:12.074Z,4.30
2018-09-21T02:51:40.328Z,4.40
2018-09-21T02:54:08.582Z,4.70
2018-09-21T02:56:37.328Z,4.53
2018-09-21T02:59:05.682Z,4.50
2018-09-21T03:01:33.914Z,4.60
2018-09-21T03:04:02.418Z,4.57
2018-09-21T03:06:30.646Z,4.33
2018-09-21T03:08:58.878Z,4.50
2018-09-21T03:11:27.186Z,4.50
2018-09-21T03:13:55.411Z,4.40
2018-09-21T03:16:23.702Z,4.40
2018-09-21T03:18:52.015Z,4.60
2018-09-21T03:21:20.266Z,4.77
2018-09-21T03:23:49.410Z,4.50
2018-09-21T03:26:17.782Z,4.47
2018-09-21T03:28:46.366Z,4.53
2018-09-21T03:31:14.583Z,4.30
2018-09-21T03:33:43.426Z,4.50
2018-09-21T03:36:11.678Z,4.60
2018-09-21T03:38:39.910Z,4.13
2018-09-21T03:41:08.175Z,4.07
2018-09-21T03:43:36.419Z,4.03
2018-09-21T03:46:04.668Z,4.23
2018-09-21T03:48:32.943Z,4.50
2018-09-21T03:51:01.166Z,4.30
2018-09-21T03:53:29.418Z,4.40
2018-09-21T03:55:57.704Z,4.43
2018-09-21T03:58:26.038Z,4.37
2018-09-21T04:00:54.349Z,4.20
2018-09-21T04:03:22.770Z,4.30
2018-09-21T04:05:51.686Z,4.33
2018-09-21T04:08:19.955Z,4.27
2018-09-21T04:10:48.284Z,4.43
2018-09-21T04:13:16.617Z,4.47
2018-09-21T04:15:44.859Z,4.33
2018-09-21T04:18:13.394Z,4.60
2018-09-21T04:20:41.722Z,4.00
2018-09-21T04:23:10.028Z,4.50
2018-09-21T04:25:38.854Z,4.20
2018-09-21T04:28:07.085Z,4.63
2018-09-21T04:30:35.310Z,4.60
2018-09-21T04:33:03.562Z,4.40
2018-09-21T04:35:31.778Z,4.53
2018-09-21T04:38:00.010Z,4.60
2018-09-21T04:40:28.319Z,5.07
2018-09-21T04:42:56.646Z,4.90
2018-09-21T04:45:24.882Z,4.10
2018-09-21T04:47:53.317Z,4.23
2018-09-21T04:50:21.666Z,4.60
2018-09-21T04:52:49.895Z,4.30
2018-09-21T04:55:18.250Z,4.63
2018-09-21T04:57:46.494Z,4.30
2018-09-21T05:00:14.779Z,4.87
2018-09-21T05:02:43.175Z,4.87
2018-09-21T05:05:11.464Z,4.90
2018-09-21T05:07:39.687Z,4.80
2018-09-21T05:10:07.989Z,4.93
2018-09-21T05:12:36.210Z,4.87
2018-09-21T05:15:04.846Z,5.07
2018-09-21T05:17:33.244Z,5.10
2018-09-21T05:20:01.595Z,4.63
2018-09-21T05:22:29.819Z,4.63
2018-09-21T05:24:59.430Z,5.13
2018-09-21T05:27:27.808Z,5.10
2018-09-21T05:29:56.009Z,6.10
2018-09-21T05:32:25.260Z,5.43
2018-09-21T05:34:53.526Z,4.93
2018-09-21T05:37:21.788Z,4.80
2018-09-21T05:39:50.094Z,4.77
2018-09-21T05:42:18.323Z,4.70
2018-09-21T05:44:47.238Z,5.03
2018-09-21T05:47:15.586Z,4.47
2018-09-21T05:49:43.908Z,4.40
2018-09-21T05:52:12.298Z,4.27
2018-09-21T05:54:40.563Z,4.20
2018-09-21T05:57:08.824Z,4.40
2018-09-21T05:59:37.146Z,4.17
2018-09-21T06:02:05.483Z,3.97
2018-09-21T06:04:33.854Z,4.40
2018-09-21T06:07:02.224Z,4.10
2018-09-21T06:09:30.527Z,4.13
2018-09-21T06:11:58.798Z,8.77
2018-09-21T06:14:27.047Z,4.00
2018-09-21T06:16:55.319Z,4.03
2018-09-21T06:19:23.692Z,4.40
2018-09-21T06:21:52.595Z,4.00
2018-09-21T06:24:20.899Z,4.10
2018-09-21T06:26:49.178Z,3.97
2018-09-21T06:29:17.439Z,4.50
2018-09-21T06:31:45.768Z,3.67
2018-09-21T06:34:13.994Z,4.43
2018-09-21T06:36:42.252Z,4.00
2018-09-21T06:39:11.839Z,3.83
2018-09-21T06:41:40.423Z,3.77
2018-09-21T06:44:09.214Z,4.17
2018-09-21T06:46:37.480Z,4.53
2018-09-21T06:49:06.119Z,4.20
2018-09-21T06:51:34.531Z,4.10
2018-09-21T06:54:02.884Z,3.67
2018-09-21T06:56:31.106Z,4.00
2018-09-21T06:58:59.355Z,4.10
2018-09-21T07:01:27.769Z,4.13
2018-09-21T07:03:55.955Z,3.80
2018-09-21T07:06:24.258Z,4.07
2018-09-21T07:08:53.550Z,4.17
2018-09-21T07:11:21.902Z,4.03
2018-09-21T07:13:50.335Z,4.00
2018-09-21T07:16:18.625Z,3.73
2018-09-21T07:18:46.900Z,4.20
2018-09-21T07:21:15.234Z,4.20
2018-09-21T07:23:43.715Z,4.30
2018-09-21T07:26:11.958Z,4.00
2018-09-21T07:28:40.243Z,4.03
2018-09-21T07:31:08.636Z,3.80
2018-09-21T07:33:37.000Z,3.70
2018-09-21T07:36:05.283Z,3.53
2018-09-21T07:38:33.599Z,3.57
2018-09-21T07:41:01.959Z,4.17
2018-09-21T07:43:30.207Z,4.07
2018-09-21T07:45:58.655Z,5.17
2018-09-21T07:48:26.969Z,4.27
2018-09-21T07:50:55.239Z,4.00
2018-09-21T07:53:23.497Z,4.10
2018-09-21T07:55:51.738Z,4.07
2018-09-21T07:58:20.069Z,4.37
2018-09-21T08:00:48.628Z,4.47
2018-09-21T08:03:16.929Z,4.10
2018-09-21T08:05:45.206Z,4.10
2018-09-21T08:08:13.466Z,3.97
2018-09-21T08:10:41.860Z,4.03
2018-09-21T08:13:10.121Z,4.20
2018-09-21T08:15:38.444Z,4.10
2018-09-21T08:18:06.694Z,4.30
2018-09-21T08:20:34.963Z,4.10
2018-09-21T08:23:03.359Z,4.40
2018-09-21T08:25:31.609Z,4.63
2018-09-21T08:27:59.997Z,4.70
2018-09-21T08:30:28.269Z,4.53
2018-09-21T08:32:56.517Z,4.70
2018-09-21T08:35:24.748Z,4.50
2018-09-21T08:37:53.028Z,4.40
2018-09-21T08:40:21.257Z,4.00
2018-09-21T08:42:49.607Z,4.70
2018-09-21T08:45:17.870Z,4.33
2018-09-21T08:47:46.203Z,4.17
2018-09-21T08:50:14.419Z,4.53
2018-09-21T08:52:42.676Z,4.27
2018-09-21T08:55:11.044Z,4.30
2018-09-21T08:57:39.282Z,4.17
2018-09-21T09:00:07.626Z,4.20
2018-09-21T09:02:35.855Z,4.40
2018-09-21T09:05:04.175Z,4.57
2018-09-21T09:07:32.653Z,4.40
2018-09-21T09:10:00.887Z,4.00
2018-09-21T09:12:29.129Z,3.73
2018-09-21T09:14:57.475Z,4.13
2018-09-21T09:17:25.847Z,4.20
2018-09-21T09:19:54.110Z,4.13
2018-09-21T09:22:22.485Z,3.90
2018-09-21T09:24:50.867Z,4.23
2018-09-21T09:27:19.075Z,4.07
2018-09-21T09:29:48.146Z,3.50
2018-09-21T09:32:16.388Z,4.03
2018-09-21T09:34:44.599Z,3.97
2018-09-21T09:37:12.888Z,3.70
2018-09-21T09:39:41.243Z,4.17
2018-09-21T09:42:09.500Z,4.50
2018-09-21T09:44:37.905Z,4.47
2018-09-21T09:47:06.416Z,3.93
2018-09-21T09:49:34.842Z,4.20
2018-09-21T09:52:03.108Z,3.90
2018-09-21T09:54:31.387Z,4.10
2018-09-21T09:56:59.686Z,3.97
2018-09-21T09:59:28.005Z,3.97
2018-09-21T10:01:56.224Z,4.33
2018-09-21T10:04:24.445Z,4.00
2018-09-21T10:06:52.799Z,3.83
2018-09-21T10:09:21.144Z,3.90
2018-09-21T10:11:49.427Z,3.83
2018-09-21T10:14:17.749Z,4.20
2018-09-21T10:16:45.972Z,3.90
2018-09-21T10:19:14.226Z,4.00
2018-09-21T10:21:42.479Z,4.07
2018-09-21T10:24:10.782Z,4.10
2018-09-21T10:26:39.021Z,3.93
2018-09-21T10:29:07.401Z,3.70
2018-09-21T10:31:35.633Z,3.73
2018-09-21T10:34:03.881Z,3.97
2018-09-21T10:36:32.173Z,3.70
2018-09-21T10:39:00.561Z,3.80
2018-09-21T10:41:28.857Z,3.87
2018-09-21T10:43:58.370Z,4.13
2018-09-21T10:46:26.618Z,3.97
2018-09-21T10:48:54.882Z,3.60
2018-09-21T10:51:23.227Z,3.80
2018-09-21T10:53:51.466Z,3.73
2018-09-21T10:56:19.725Z,3.80
2018-09-21T10:58:48.330Z,3.80
2018-09-21T11:01:16.570Z,3.60
2018-09-21T11:03:44.955Z,3.77
2018-09-21T11:06:13.369Z,3.90
2018-09-21T11:08:41.807Z,3.80
2018-09-21T11:11:10.195Z,3.73
2018-09-21T11:13:38.518Z,3.70
2018-09-21T11:16:07.991Z,5.80
2018-09-21T11:18:36.260Z,3.73
2018-09-21T11:21:04.603Z,3.87
2018-09-21T11:23:32.919Z,3.47
2018-09-21T11:26:01.208Z,3.43
2018-09-21T11:28:29.509Z,3.53
2018-09-21T11:30:57.882Z,3.63
2018-09-21T11:33:26.115Z,3.23
2018-09-21T11:35:54.528Z,3.93
2018-09-21T11:38:22.775Z,3.20
2018-09-21T11:40:51.096Z,3.60
2018-09-21T11:43:19.469Z,3.20
2018-09-21T11:45:47.863Z,3.67
2018-09-21T11:48:16.187Z,4.00
2018-09-21T11:50:44.501Z,4.67
2018-09-21T11:53:13.671Z,3.60
2018-09-21T11:55:43.258Z,5.30
2018-09-21T11:58:11.607Z,3.50
2018-09-21T12:00:40.200Z,3.80
2018-09-21T12:03:08.506Z,4.63
2018-09-21T12:05:36.821Z,4.60
2018-09-21T12:08:05.155Z,3.87
2018-09-21T12:10:33.412Z,3.43
2018-09-21T12:13:01.918Z,3.67
2018-09-21T12:15:30.146Z,3.73
2018-09-21T12:17:58.555Z,3.40
2018-09-21T12:20:27.066Z,3.40
2018-09-21T12:22:55.365Z,3.87
2018-09-21T12:25:23.706Z,3.63
2018-09-21T12:27:52.215Z,4.40
2018-09-21T12:30:20.535Z,3.47
2018-09-21T12:32:48.722Z,14.77
2018-09-21T12:35:17.138Z,3.63
2018-09-21T12:37:45.399Z,3.70
2018-09-21T12:40:13.646Z,3.97
2018-09-21T12:42:42.663Z,3.80
2018-09-21T12:45:10.835Z,3.80
2018-09-21T12:47:39.116Z,3.83
2018-09-21T12:50:07.907Z,3.93
2018-09-21T12:52:36.169Z,3.60
2018-09-21T12:55:04.398Z,3.40
2018-09-21T12:57:32.799Z,3.47
2018-09-21T13:00:01.111Z,3.53
2018-09-21T13:02:29.376Z,7.50
2018-09-21T13:04:57.779Z,4.27
2018-09-21T13:07:27.008Z,2.90
2018-09-21T13:09:55.261Z,3.40
2018-09-21T13:12:23.635Z,3.40
2018-09-21T13:14:52.075Z,3.60
2018-09-21T13:17:20.359Z,4.73
2018-09-21T13:19:48.669Z,4.47
2018-09-21T13:22:16.927Z,3.30
2018-09-21T13:24:45.175Z,3.20
2018-09-21T13:27:13.815Z,3.23
2018-09-21T13:29:42.763Z,3.60
2018-09-21T13:32:11.116Z,3.23
2018-09-21T13:34:39.339Z,3.10
2018-09-21T13:37:07.593Z,3.77
2018-09-21T13:39:35.886Z,3.90
2018-09-21T13:42:04.187Z,3.20
2018-09-21T13:44:32.419Z,3.70
2018-09-21T13:47:00.726Z,3.00
2018-09-21T13:49:28.990Z,3.20
2018-09-21T13:51:57.497Z,3.70
2018-09-21T13:54:25.750Z,3.20
2018-09-21T13:56:54.077Z,3.40
2018-09-21T13:59:22.374Z,3.13
2018-09-21T14:01:51.566Z,3.50
2018-09-21T14:04:20.499Z,3.27
2018-09-21T14:06:48.862Z,3.20
2018-09-21T14:09:17.127Z,3.67
2018-09-21T14:11:45.481Z,3.47
2018-09-21T14:14:13.791Z,4.27
2018-09-21T14:16:42.032Z,3.70
2018-09-21T14:19:10.378Z,3.60
2018-09-21T14:21:38.718Z,3.33
2018-09-21T14:24:07.379Z,3.60
2018-09-21T14:26:35.838Z,3.70
2018-09-21T14:29:04.161Z,3.53
2018-09-21T14:31:36.455Z,3.43
2018-09-21T14:34:04.708Z,3.30
2018-09-21T14:36:32.984Z,3.37
2018-09-21T14:39:01.229Z,3.50
2018-09-21T14:41:29.483Z,5.07
2018-09-21T14:43:57.725Z,4.03
2018-09-21T14:46:26.110Z,3.83
2018-09-21T14:48:54.343Z,3.67
2018-09-21T14:51:22.627Z,3.50
2018-09-21T14:53:50.902Z,4.10
2018-09-21T14:56:19.147Z,3.67
2018-09-21T14:58:47.467Z,3.70
2018-09-21T15:01:15.726Z,3.90
2018-09-21T15:03:43.955Z,4.20
2018-09-21T15:06:12.195Z,3.90
2018-09-21T15:08:40.499Z,4.43
2018-09-21T15:11:09.319Z,4.20
2018-09-21T15:13:37.559Z,3.57
2018-09-21T15:16:06.627Z,3.90
2018-09-21T15:18:34.899Z,3.83
2018-09-21T15:21:03.138Z,3.63
2018-09-21T15:23:31.394Z,3.80
2018-09-21T15:25:59.726Z,6.50
2018-09-21T15:28:28.921Z,16.83
2018-09-21T15:30:57.183Z,5.10
2018-09-21T15:33:25.432Z,5.93
2018-09-21T15:35:53.759Z,4.43
2018-09-21T15:38:22.030Z,4.77
2018-09-21T15:40:50.271Z,4.20
2018-09-21T15:43:18.568Z,4.07
2018-09-21T15:45:46.754Z,3.87
2018-09-21T15:48:14.967Z,3.90
2018-09-21T15:50:43.299Z,3.53
2018-09-21T15:53:11.563Z,3.57
2018-09-21T15:55:39.859Z,4.30
2018-09-21T15:58:08.087Z,3.83
2018-09-21T16:00:36.739Z,4.13
2018-09-21T16:03:05.005Z,3.93
2018-09-21T16:05:33.253Z,13.27
2018-09-21T16:08:01.607Z,8.83
2018-09-21T16:10:29.928Z,9.30
2018-09-21T16:12:58.207Z,6.53
2018-09-21T16:15:26.810Z,5.00
2018-09-21T16:17:55.117Z,6.00
2018-09-21T16:20:23.359Z,4.57
2018-09-21T16:22:51.670Z,5.20
2018-09-21T16:25:19.948Z,5.27
2018-09-21T16:27:48.210Z,5.20
2018-09-21T16:30:16.547Z,5.70
2018-09-21T16:32:44.845Z,5.57
2018-09-21T16:35:13.121Z,7.00
2018-09-21T16:37:41.493Z,5.33
2018-09-21T16:40:09.851Z,5.30
2018-09-21T16:42:38.131Z,5.40
2018-09-21T16:45:06.924Z,5.23
2018-09-21T16:47:35.986Z,6.00
2018-09-21T16:50:04.642Z,11.63
2018-09-21T16:52:33.131Z,13.63
2018-09-21T16:55:01.491Z,5.30
2018-09-21T16:57:29.762Z,5.27
2018-09-21T16:59:58.042Z,6.00
2018-09-21T17:02:26.306Z,4.90
2018-09-21T17:04:54.772Z,5.23
2018-09-21T17:07:23.040Z,5.13
2018-09-21T17:09:51.329Z,7.90
2018-09-21T17:12:20.571Z,6.23
2018-09-21T17:14:49.038Z,4.83
2018-09-21T17:17:17.388Z,5.60
2018-09-21T17:19:45.739Z,5.37
2018-09-21T17:22:14.036Z,5.40
2018-09-21T17:24:42.298Z,5.73
2018-09-21T17:27:10.540Z,7.10
2018-09-21T17:29:38.882Z,6.40
2018-09-21T17:32:07.140Z,6.17
2018-09-21T17:34:35.399Z,6.43
2018-09-21T17:37:03.711Z,6.07
2018-09-21T17:39:32.070Z,5.10
2018-09-21T17:42:00.314Z,5.00
2018-09-21T17:44:28.594Z,4.93
2018-09-21T17:46:56.905Z,5.27
2018-09-21T17:49:25.119Z,5.10
2018-09-21T17:51:54.089Z,5.00
2018-09-21T17:54:22.515Z,5.10
2018-09-21T17:56:50.834Z,4.90
2018-09-21T17:59:19.201Z,5.17
2018-09-21T18:01:47.466Z,4.80
2018-09-21T18:04:15.722Z,4.60
2018-09-21T18:06:44.098Z,4.90
2018-09-21T18:09:12.332Z,5.57
2018-09-21T18:11:40.659Z,5.27
2018-09-21T18:14:09.006Z,5.53
2018-09-21T18:16:37.346Z,5.40
2018-09-21T18:19:05.595Z,5.47
2018-09-21T18:21:34.007Z,5.90
2018-09-21T18:24:02.259Z,6.43
2018-09-21T18:26:30.536Z,6.30
2018-09-21T18:28:58.841Z,5.57
2018-09-21T18:31:27.198Z,5.00
2018-09-21T18:33:55.651Z,5.27
2018-09-21T18:36:24.013Z,5.10
2018-09-21T18:38:52.275Z,5.10
2018-09-21T18:41:20.631Z,5.17
2018-09-21T18:43:48.927Z,5.03
2018-09-21T18:46:17.592Z,4.90
2018-09-21T18:48:46.107Z,5.17
2018-09-21T18:51:14.569Z,5.50
2018-09-21T18:53:42.945Z,5.40
2018-09-21T18:56:11.266Z,5.40
2018-09-21T18:58:39.751Z,5.27
2018-09-21T19:01:08.123Z,5.50
2018-09-21T19:03:36.450Z,5.57
2018-09-21T19:06:04.870Z,5.57
2018-09-21T19:08:33.190Z,5.70
2018-09-21T19:11:01.503Z,5.50
2018-09-21T19:13:29.831Z,6.00
2018-09-21T19:15:58.117Z,6.07
2018-09-21T19:18:26.404Z,5.60
2018-09-21T19:20:54.680Z,5.97
2018-09-21T19:23:23.263Z,5.77
2018-09-21T19:25:51.580Z,6.00
2018-09-21T19:28:20.239Z,6.03
2018-09-21T19:30:49.727Z,5.97
2018-09-21T19:33:18.266Z,6.10
2018-09-21T19:35:47.215Z,6.20
2018-09-21T19:38:15.899Z,5.93
2018-09-21T19:40:44.741Z,5.40
2018-09-21T19:43:14.455Z,5.07
2018-09-21T19:45:43.133Z,4.97
2018-09-21T19:48:11.425Z,4.40
2018-09-21T19:50:39.909Z,4.10
2018-09-21T19:53:08.398Z,3.90
2018-09-21T19:55:37.649Z,4.10
2018-09-21T19:58:06.887Z,3.70
2018-09-21T20:00:35.303Z,3.80
2018-09-21T20:03:03.805Z,4.07
2018-09-21T20:05:32.475Z,4.10
2018-09-21T20:08:00.919Z,3.80
2018-09-21T20:10:29.323Z,3.83
2018-09-21T20:12:58.083Z,3.77
2018-09-21T20:15:26.403Z,3.17
2018-09-21T20:17:54.725Z,2.90
2018-09-21T20:20:23.187Z,2.83
2018-09-21T20:22:51.662Z,2.60
2018-09-21T20:25:20.217Z,2.20
2018-09-21T20:27:48.648Z,1.93
2018-09-21T20:30:22.463Z,1.57
2018-09-21T20:32:55.993Z,1.50
2018-09-21T20:35:30.982Z,1.30
2018-09-21T20:37:59.360Z,1.20
2018-09-21T20:40:28.379Z,0.93
2018-09-21T20:42:56.762Z,1.07
2018-09-21T20:45:25.211Z,1.20
2018-09-21T20:47:53.537Z,1.10
2018-09-21T20:50:21.888Z,1.23
2018-09-21T20:52:50.385Z,1.10
2018-09-21T20:55:18.960Z,0.93
2018-09-21T20:57:47.289Z,0.80
2018-09-21T21:00:15.664Z,1.27
2018-09-21T21:02:44.028Z,1.07
2018-09-21T21:05:12.405Z,1.10
2018-09-21T21:07:41.070Z,1.37
2018-09-21T21:10:09.399Z,1.30
2018-09-21T21:12:37.856Z,1.30
2018-09-21T21:15:06.617Z,1.43
2018-09-21T21:17:34.978Z,1.60
2018-09-21T21:20:03.428Z,1.60
2018-09-21T21:22:31.940Z,1.10
2018-09-21T21:25:00.505Z,1.40
2018-09-21T21:27:28.932Z,1.17
2018-09-21T21:29:57.348Z,1.20
2018-09-21T21:32:25.697Z,1.60
2018-09-21T21:34:54.060Z,1.50
2018-09-21T21:37:22.467Z,1.70
2018-09-21T21:39:50.796Z,1.60
2018-09-21T21:42:20.008Z,1.73
2018-09-21T21:44:48.444Z,1.73
2018-09-21T21:47:16.771Z,1.50
2018-09-21T21:49:45.176Z,1.40
2018-09-21T21:52:14.152Z,1.97
2018-09-21T21:54:42.490Z,1.47
2018-09-21T21:57:10.826Z,2.03
2018-09-21T21:59:39.203Z,1.53
2018-09-21T22:02:10.595Z,1.40
2018-09-21T22:04:40.245Z,1.60
2018-09-21T22:07:09.648Z,1.80
2018-09-21T22:09:38.053Z,1.40
2018-09-21T22:12:11.928Z,1.40
2018-09-21T22:14:40.399Z,1.63
2018-09-21T22:17:09.060Z,1.60
2018-09-21T22:19:37.535Z,1.93
2018-09-21T22:22:06.192Z,2.10
2018-09-21T22:24:34.632Z,1.80
2018-09-21T22:27:03.151Z,1.90
2018-09-21T22:29:31.595Z,1.43
2018-09-21T22:31:59.943Z,1.40
2018-09-21T22:34:28.398Z,1.90
2018-09-21T22:36:56.739Z,1.83
2018-09-21T22:39:25.087Z,1.73
2018-09-21T22:41:54.786Z,1.40
2018-09-21T22:44:23.187Z,1.70
2018-09-21T22:46:51.581Z,1.50
2018-09-21T22:49:22.334Z,1.80
2018-09-21T22:51:50.688Z,1.70
2018-09-21T22:54:19.063Z,1.40
2018-09-21T22:56:47.564Z,2.00
2018-09-21T22:59:15.963Z,1.67
2018-09-21T23:01:45.160Z,1.83
2018-09-21T23:04:13.788Z,1.97
2018-09-21T23:06:42.308Z,1.70
2018-09-21T23:09:12.337Z,1.30
2018-09-21T23:11:41.600Z,1.60
2018-09-21T23:14:10.560Z,1.80
2018-09-21T23:16:39.336Z,1.87
2018-09-21T23:19:07.920Z,1.70
2018-09-21T23:21:36.268Z,1.80
2018-09-21T23:24:04.727Z,1.90
2018-09-21T23:26:33.251Z,1.80
2018-09-21T23:29:01.821Z,1.90
2018-09-21T23:31:30.267Z,1.80
2018-09-21T23:33:58.703Z,1.70
2018-09-21T23:36:27.043Z,1.90
2018-09-21T23:38:55.528Z,1.97
2018-09-21T23:41:24.026Z,1.80
2018-09-21T23:43:52.500Z,1.90
2018-09-21T23:46:20.840Z,1.83
2018-09-21T23:48:49.280Z,1.83
2018-09-21T23:51:17.707Z,1.90
2018-09-21T23:53:46.161Z,2.00
2018-09-21T23:56:14.623Z,1.90
2018-09-21T23:58:43.039Z,1.53
